Time;durP1;ratioP1;P1;durP2;ratioP2;P2;SDS_P1;SDS_P2;PMS_P1;PMS_P2;Temp;Humidity;BMP_temperature;BMP_pressure;BME280_temperature;BME280_humidity;BME280_pressure;Samples;Min_cycle;Max_cycle;Signal;HPM_P1;HPM_P2
2022/01/19 00:01:00;;;;;;;93.87;30.80;;;;;;;11.80;100.00;103163.13;5075555;28;20269;-53
2022/01/19 00:03:26;;;;;;;118.53;33.47;;;;;;;11.72;100.00;103155.81;5075408;28;20044;-53
2022/01/19 00:05:51;;;;;;;102.95;31.58;;;;;;;11.69;100.00;103145.38;5075051;28;20044;-51
2022/01/19 00:08:19;;;;;;;96.57;28.60;;;;;;;11.68;100.00;103141.88;5040947;28;20131;-53
2022/01/19 00:10:45;;;;;;;97.72;30.60;;;;;;;11.68;100.00;103133.84;5075008;28;20044;-53
2022/01/19 00:13:11;;;;;;;;;;;;;;;11.81;100.00;103130.81;5057842;28;20397;-52
2022/01/19 00:15:37;;;;;;;92.03;29.83;;;;;;;11.71;100.00;103133.53;5075444;28;19920;-56
2022/01/19 00:18:03;;;;;;;87.65;29.83;;;;;;;11.93;100.00;103127.94;5057939;28;20380;-52
2022/01/19 00:20:31;;;;;;;99.45;30.92;;;;;;;11.77;100.00;103132.13;5040978;28;20048;-51
2022/01/19 00:22:57;;;;;;;91.95;31.48;;;;;;;11.85;100.00;103137.56;5074932;28;20037;-52
2022/01/19 00:25:23;;;;;;;92.05;31.27;;;;;;;11.71;100.00;103132.69;5075277;28;20043;-53
2022/01/19 00:27:50;;;;;;;102.85;32.80;;;;;;;11.70;100.00;103128.31;5075165;28;20123;-51
2022/01/19 00:30:16;;;;;;;108.68;31.20;;;;;;;11.79;100.00;103124.78;5075461;28;20090;-53
2022/01/19 00:32:41;;;;;;;86.65;32.03;;;;;;;11.82;100.00;103116.44;5075698;28;20060;-54
2022/01/19 00:35:09;;;;;;;100.83;30.03;;;;;;;11.78;100.00;103093.59;5057528;28;20040;-51
2022/01/19 00:37:35;;;;;;;88.10;28.80;;;;;;;11.82;100.00;103086.94;5074636;28;20052;-51
2022/01/19 00:40:02;;;;;;;93.50;31.48;;;;;;;11.80;100.00;103064.78;5057060;28;20117;-52
2022/01/19 00:42:27;;;;;;;84.93;31.15;;;;;;;11.72;100.00;103054.81;5074810;28;20576;-51
2022/01/19 00:44:53;;;;;;;87.67;29.87;;;;;;;11.80;100.00;103047.84;5075123;28;20146;-52
2022/01/19 00:47:19;;;;;;;88.50;29.13;;;;;;;11.68;100.00;103042.69;5057733;28;20385;-52
2022/01/19 00:49:45;;;;;;;94.60;30.47;;;;;;;11.76;100.00;103052.66;5074847;28;20044;-55
2022/01/19 00:52:11;;;;;;;94.18;31.58;;;;;;;11.72;100.00;103043.22;5056765;28;20044;-50
2022/01/19 00:54:38;;;;;;;;;;;;;;;11.71;100.00;103054.94;5057135;28;20044;-53
2022/01/19 00:57:05;;;;;;;83.40;30.65;;;;;;;11.73;100.00;103055.63;5074868;28;19912;-54
2022/01/19 00:59:30;;;;;;;82.68;30.90;;;;;;;11.73;100.00;103050.28;5074817;28;20040;-50
2022/01/19 01:01:56;;;;;;;89.00;30.48;;;;;;;11.55;100.00;103047.53;5058369;28;20131;-51
2022/01/19 01:04:21;;;;;;;87.80;32.13;;;;;;;11.54;100.00;103044.03;5075164;28;20044;-52
2022/01/19 01:06:48;;;;;;;83.25;30.08;;;;;;;11.34;100.00;103043.25;5056902;28;20068;-52
2022/01/19 01:09:13;;;;;;;83.75;31.50;;;;;;;11.30;100.00;103025.78;5074425;28;20500;-54
2022/01/19 01:11:47;;;;;;;87.57;29.38;;;;;;;11.24;100.00;103015.66;5056843;28;20064;-53
2022/01/19 01:17:12;;;;;;;81.32;29.00;;;;;;;11.06;100.00;102992.31;5074828;28;20043;-53
2022/01/19 01:19:37;;;;;;;85.28;28.75;;;;;;;10.82;100.00;102990.13;5044035;28;20044;-54
2022/01/19 01:22:03;;;;;;;85.30;32.38;;;;;;;10.47;100.00;102971.88;5074121;28;20041;-50
2022/01/19 01:24:30;;;;;;;91.90;29.73;;;;;;;10.51;100.00;102972.44;5039759;28;20040;-53
2022/01/19 01:26:56;;;;;;;95.28;32.10;;;;;;;10.40;100.00;102978.78;5056632;28;20063;-53
2022/01/19 01:29:22;;;;;;;82.50;32.20;;;;;;;10.34;100.00;102973.94;5074369;28;20457;-54
2022/01/19 01:31:48;;;;;;;;;;;;;;;10.33;100.00;102982.94;5056418;28;20613;-54
2022/01/19 01:34:13;;;;;;;104.27;31.30;;;;;;;10.32;100.00;102974.09;5073672;28;20003;-51
2022/01/19 01:36:39;;;;;;;86.68;30.65;;;;;;;10.31;100.00;102974.22;5073900;28;20064;-53
2022/01/19 01:39:05;;;;;;;83.63;30.95;;;;;;;10.23;100.00;102964.22;5073985;28;20075;-52
2022/01/19 01:41:30;;;;;;;98.30;35.63;;;;;;;10.25;100.00;102954.25;5039389;28;20068;-51
2022/01/19 01:44:08;;;;;;;101.85;34.78;;;;;;;10.28;100.00;102945.09;5041263;28;20803;-51
2022/01/19 01:46:44;;;;;;;93.43;33.27;;;;;;;10.14;100.00;102935.69;5073764;28;20045;-54
2022/01/19 01:49:20;;;;;;;94.90;31.90;;;;;;;10.09;100.00;102935.25;5056651;28;20040;-53
2022/01/19 01:54:30;;;;;;;100.00;36.38;;;;;;;9.97;100.00;102937.22;5056371;28;20349;-53
2022/01/19 01:56:55;;;;;;;100.47;33.60;;;;;;;9.99;100.00;102933.41;5055612;28;20066;-53
2022/01/19 01:59:21;;;;;;;85.65;31.73;;;;;;;9.97;100.00;102923.88;5055671;28;20041;-52
2022/01/19 02:01:58;;;;;;;82.43;31.17;;;;;;;9.86;100.00;102914.97;5055613;28;20049;-53
2022/01/19 02:04:25;;;;;;;89.93;32.40;;;;;;;9.78;100.00;102917.50;5056388;28;20047;-52
2022/01/19 02:07:30;;;;;;;88.32;30.25;;;;;;;9.67;100.00;102918.47;5055471;28;20044;-51
2022/01/19 02:10:00;;;;;;;88.30;31.42;;;;;;;9.43;100.00;102900.16;5056338;28;20528;-52
2022/01/19 02:23:27;;;;;;;81.38;30.17;;;;;;;9.36;100.00;102875.84;5055574;28;20072;-56
2022/01/19 02:25:56;;;;;;;86.00;30.48;;;;;;;9.32;100.00;102866.38;5055338;28;20037;-55
2022/01/19 02:41:52;;;;;;;76.23;25.07;;;;;;;9.08;100.00;102822.22;5073235;28;20063;-54
2022/01/19 02:44:36;;;;;;;85.07;25.33;;;;;;;8.93;100.00;102811.06;5055155;28;20565;-54
2022/01/19 02:49:44;;;;;;;145.18;29.27;;;;;;;8.67;100.00;102795.53;5055669;28;20049;-53
2022/01/19 02:52:10;;;;;;;148.10;30.58;;;;;;;8.50;100.00;102793.50;5073064;28;20112;-53
2022/01/19 02:54:37;;;;;;;100.90;27.17;;;;;;;8.40;100.00;102778.28;5055563;28;20194;-53
2022/01/19 02:57:03;;;;;;;117.50;28.25;;;;;;;8.47;100.00;102779.44;5073316;28;20132;-53
2022/01/19 03:10:19;;;;;;;73.32;26.52;;;;;;;8.32;100.00;102738.13;5073009;28;20383;-53
2022/01/19 03:12:45;;;;;;;81.43;26.50;;;;;;;8.26;100.00;102727.97;5054876;28;20480;-54
2022/01/19 03:15:12;;;;;;;74.63;27.45;;;;;;;8.35;100.00;102731.66;5055365;28;20532;-50
2022/01/19 03:17:38;;;;;;;78.35;26.55;;;;;;;8.24;100.00;102721.94;5073110;28;20468;-51
2022/01/19 03:20:06;;;;;;;82.78;25.67;;;;;;;8.33;100.00;102718.47;5055776;28;20106;-52
2022/01/19 03:22:39;;;;;;;75.63;27.17;;;;;;;8.25;100.00;102715.63;5073065;28;20029;-52
2022/01/19 03:25:11;;;;;;;69.63;25.55;;;;;;;8.24;100.00;102711.28;5054909;28;20044;-55
2022/01/19 03:27:38;;;;;;;71.93;24.63;;;;;;;8.51;100.00;102709.84;5074428;28;20079;-50
2022/01/19 03:30:05;;;;;;;67.97;22.55;;;;;;;8.62;100.00;102707.09;5058750;28;20197;-51
2022/01/19 03:32:31;;;;;;;64.30;22.42;;;;;;;8.58;100.00;102703.84;5076396;28;20044;-52
2022/01/19 03:34:57;;;;;;;55.05;23.05;;;;;;;8.68;100.00;102711.88;5058211;28;20048;-56
2022/01/19 03:37:22;;;;;;;79.87;22.53;;;;;;;8.66;100.00;102716.50;5058382;28;20053;-52
2022/01/19 03:39:48;;;;;;;62.80;22.37;;;;;;;8.60;100.00;102711.72;5058723;28;20746;-53
2022/01/19 03:42:14;;;;;;;62.15;23.70;;;;;;;8.54;100.00;102710.44;5058155;28;20502;-53
2022/01/19 03:44:39;;;;;;;63.00;23.27;;;;;;;8.54;100.00;102701.59;5058109;28;20044;-50
2022/01/19 03:47:06;;;;;;;56.05;20.40;;;;;;;8.46;100.00;102708.41;5058085;28;20277;-54
2022/01/19 03:49:33;;;;;;;54.58;20.45;;;;;;;8.54;100.00;102710.44;5058851;28;20487;-52
2022/01/19 03:52:02;;;;;;;57.65;21.05;;;;;;;8.45;100.00;102701.41;5076184;28;20392;-51
2022/01/19 03:54:42;;;;;;;66.20;23.45;;;;;;;8.20;100.00;102691.19;5058715;28;20040;-53
2022/01/19 03:57:08;;;;;;;51.58;21.35;;;;;;;7.86;100.00;102687.84;5075983;28;20048;-54
2022/01/19 03:59:35;;;;;;;61.33;22.13;;;;;;;7.89;100.00;102690.22;5057725;28;20477;-53
2022/01/19 04:02:01;;;;;;;58.53;21.83;;;;;;;8.01;100.00;102684.81;5075990;28;20028;-53
2022/01/19 04:07:09;;;;;;;55.72;20.52;;;;;;;8.21;100.00;102682.22;5058286;28;20040;-52
2022/01/19 04:09:42;;;;;;;63.05;21.75;;;;;;;8.18;100.00;102678.84;5058397;28;20082;-52
2022/01/19 04:12:13;;;;;;;61.47;21.02;;;;;;;8.00;100.00;102670.66;5058083;28;20068;-50
2022/01/19 04:14:38;;;;;;;56.47;20.40;;;;;;;8.08;100.00;102667.31;5041982;28;20464;-56
2022/01/19 04:17:07;;;;;;;55.77;20.77;;;;;;;8.25;100.00;102670.31;5057591;28;20044;-53
2022/01/19 04:19:42;;;;;;;50.13;20.70;;;;;;;8.19;100.00;102669.06;5057718;28;20032;-54
2022/01/19 04:22:14;;;;;;;50.47;21.00;;;;;;;8.19;100.00;102666.38;5057931;28;20171;-53
2022/01/19 04:24:42;;;;;;;59.83;22.02;;;;;;;7.92;100.00;102653.63;5057813;28;20479;-55
2022/01/19 04:29:49;;;;;;;57.88;20.50;;;;;;;8.00;100.00;102646.66;5057914;28;20068;-52
2022/01/19 04:32:20;;;;;;;64.43;21.40;;;;;;;7.72;100.00;102648.22;5057727;28;20499;-52
2022/01/19 04:34:48;;;;;;;59.72;22.02;;;;;;;7.89;100.00;102644.06;5075459;28;20106;-51
2022/01/19 05:04:48;;;;;;;78.28;26.27;;;;;;;7.77;100.00;102656.63;5042586;28;20053;-53
2022/01/19 05:13:51;;;;;;;77.78;28.02;;;;;;;7.71;100.00;102622.56;5015577;28;20049;-54
2022/01/19 05:16:08;;;;;;;76.97;29.92;;;;;;;7.58;100.00;102620.09;5044580;28;20084;-54
2022/01/19 05:18:34;;;;;;;74.00;27.10;;;;;;;7.37;100.00;102604.97;5057261;28;20098;-51
2022/01/19 05:20:59;;;;;;;80.97;27.58;;;;;;;7.49;100.00;102603.09;5056389;28;20123;-54
2022/01/19 05:23:49;;;;;;;75.90;29.67;;;;;;;7.29;100.00;102597.66;5036137;28;20057;-52
2022/01/19 05:26:14;;;;;;;;;;;;;;;7.60;100.00;102603.00;5057387;28;20106;-54
2022/01/19 05:28:41;;;;;;;79.78;27.88;;;;;;;7.42;100.00;102602.75;5056685;28;20342;-51
2022/01/19 05:31:06;;;;;;;70.05;28.02;;;;;;;7.53;100.00;102614.34;5056559;28;20053;-53
2022/01/19 05:33:32;;;;;;;82.97;29.00;;;;;;;7.37;100.00;102604.97;5056638;28;20423;-51
2022/01/19 05:35:58;;;;;;;76.88;27.48;;;;;;;7.28;100.00;102603.13;5074001;28;20464;-51
2022/01/19 05:38:32;;;;;;;86.47;31.17;;;;;;;7.44;100.00;102603.47;5074474;28;20191;-51
2022/01/19 05:41:10;;;;;;;84.20;31.52;;;;;;;7.36;100.00;102610.41;5056411;28;20387;-55
2022/01/19 05:43:38;;;;;;;89.32;32.05;;;;;;;7.26;100.00;102597.91;5056327;28;20036;-51
2022/01/19 05:46:03;;;;;;;90.07;32.47;;;;;;;7.49;100.00;102592.44;5056631;28;20365;-51
2022/01/19 05:48:30;;;;;;;83.70;31.73;;;;;;;7.46;100.00;102598.03;5056057;28;20131;-54
2022/01/19 05:50:56;;;;;;;84.43;32.20;;;;;;;7.80;100.00;102589.78;5055117;28;20136;-50
2022/01/19 05:53:26;;;;;;;86.70;33.42;;;;;;;7.68;100.00;102598.84;5056278;28;20405;-51
2022/01/19 05:55:52;;;;;;;75.70;31.08;;;;;;;7.86;100.00;102594.59;5056016;28;20082;-54
2022/01/19 05:58:18;;;;;;;59.15;25.45;;;;;;;7.81;100.00;102590.63;5057718;28;20385;-52
2022/01/19 06:00:47;;;;;;;68.95;27.25;;;;;;;7.85;100.00;102592.91;5055802;28;20044;-53
2022/01/19 06:03:12;;;;;;;76.13;28.73;;;;;;;7.89;100.00;102589.00;5055724;28;20042;-55
2022/01/19 06:06:00;;;;;;;76.95;32.95;;;;;;;7.51;100.00;102579.84;5058455;28;20044;-55
2022/01/19 06:08:44;;;;;;;76.43;29.17;;;;;;;7.54;100.00;102574.25;5056588;28;20045;-59
2022/01/19 06:11:12;;;;;;;96.40;32.85;;;;;;;7.44;100.00;102565.38;5055588;28;20040;-54
2022/01/19 06:13:40;;;;;;;77.70;31.83;;;;;;;7.73;100.00;102559.34;5055997;28;20071;-54
2022/01/19 06:16:06;;;;;;;82.80;32.22;;;;;;;7.66;100.00;102553.69;5073535;28;20065;-52
2022/01/19 06:18:31;;;;;;;83.60;31.50;;;;;;;7.75;100.00;102549.38;5055555;28;20040;-54
2022/01/19 06:20:59;;;;;;;89.68;34.40;;;;;;;7.38;100.00;102549.91;5039108;28;20101;-53
2022/01/19 06:23:30;;;;;;;88.40;32.63;;;;;;;7.16;100.00;102539.31;5024004;28;20042;-53
2022/01/19 06:26:04;;;;;;;99.93;35.30;;;;;;;7.23;100.00;102538.78;5055965;28;20047;-53
2022/01/19 06:28:31;;;;;;;104.45;36.67;;;;;;;7.20;100.00;102539.91;5055195;28;20456;-53
2022/01/19 06:30:57;;;;;;;105.18;35.60;;;;;;;6.95;100.00;102534.00;5055476;28;20064;-53
2022/01/19 06:33:22;;;;;;;108.90;40.67;;;;;;;6.65;100.00;102545.38;5038732;28;20090;-50
2022/01/19 06:35:48;;;;;;;113.25;40.15;;;;;;;7.05;100.00;102528.75;5055214;28;20082;-52
2022/01/19 06:38:26;;;;;;;120.40;36.45;;;;;;;7.14;100.00;102524.44;5055153;28;20478;-53
2022/01/19 06:41:00;;;;;;;123.10;41.17;;;;;;;7.32;100.00;102506.88;5039656;28;20041;-52
2022/01/19 06:43:26;;;;;;;115.47;37.70;;;;;;;7.12;100.00;102510.41;5038880;28;20047;-52
2022/01/19 06:45:53;;;;;;;113.53;38.43;;;;;;;7.01;100.00;102506.88;5055211;28;20356;-51
2022/01/19 06:48:19;;;;;;;108.50;37.70;;;;;;;7.06;100.00;102510.94;5054975;28;20041;-51
2022/01/19 06:50:44;;;;;;;116.60;37.97;;;;;;;6.94;100.00;102513.69;5055213;28;20080;-53
2022/01/19 06:53:10;;;;;;;95.90;35.07;;;;;;;6.96;100.00;102509.09;5038032;28;20484;-51
2022/01/19 06:55:35;;;;;;;88.03;30.13;;;;;;;6.98;100.00;102501.81;5054689;28;20036;-50
2022/01/19 06:58:03;;;;;;;107.65;36.58;;;;;;;7.14;100.00;102505.81;5055192;28;20435;-54
2022/01/19 07:00:48;;;;;;;96.20;35.58;;;;;;;7.42;100.00;102496.28;5072415;28;20476;-53
2022/01/19 07:03:34;;;;;;;100.85;36.25;;;;;;;7.23;100.00;102493.53;5074814;28;20132;-50
2022/01/19 07:06:16;;;;;;;104.30;35.33;;;;;;;7.13;100.00;102488.16;5044397;28;20079;-51
2022/01/19 07:09:12;;;;;;;100.45;37.17;;;;;;;7.18;100.00;102493.94;5059148;28;20049;-49
2022/01/19 07:11:43;;;;;;;100.75;35.00;;;;;;;6.96;100.00;102478.97;5059153;28;20041;-54
2022/01/19 07:14:12;;;;;;;100.45;34.53;;;;;;;7.01;100.00;102480.25;5042625;28;20051;-52
2022/01/19 07:16:38;;;;;;;102.70;35.25;;;;;;;6.95;100.00;102478.13;5076767;28;20060;-52
2022/01/19 07:19:06;;;;;;;99.90;34.90;;;;;;;6.93;100.00;102472.13;5058443;28;20033;-55
2022/01/19 07:21:31;;;;;;;91.78;33.78;;;;;;;7.28;100.00;102473.53;5058553;28;20060;-50
2022/01/19 07:23:58;;;;;;;96.95;33.92;;;;;;;7.32;100.00;102474.94;5059129;28;20036;-52
2022/01/19 07:26:24;;;;;;;92.50;33.85;;;;;;;7.43;100.00;102470.53;5058457;28;20071;-54
2022/01/19 07:28:50;;;;;;;91.47;33.47;;;;;;;7.15;100.00;102475.56;5058407;28;20080;-51
2022/01/19 07:31:15;;;;;;;101.67;34.87;;;;;;;7.27;100.00;102477.19;5058306;28;20822;-54
2022/01/19 07:33:41;;;;;;;85.25;32.08;;;;;;;7.11;100.00;102468.81;5058116;28;20049;-50
2022/01/19 07:36:07;;;;;;;85.70;32.13;;;;;;;7.05;100.00;102488.84;5061557;28;20036;-51
2022/01/19 07:38:33;;;;;;;94.80;37.15;;;;;;;6.89;100.00;102483.97;5063270;28;20056;-55
2022/01/19 07:40:59;;;;;;;76.30;30.23;;;;;;;7.22;100.00;102474.06;5060212;28;20143;-53
2022/01/19 07:43:28;;;;;;;91.05;31.98;;;;;;;7.13;100.00;102481.03;5058069;28;20036;-52
2022/01/19 07:46:17;;;;;;;85.00;31.25;;;;;;;7.37;100.00;102471.03;5077136;28;20045;-52
2022/01/19 07:49:06;;;;;;;79.68;31.27;;;;;;;7.14;100.00;102463.22;5064403;28;20040;-54
2022/01/19 07:51:42;;;;;;;91.43;32.35;;;;;;;6.89;100.00;102471.53;5075690;28;20075;-52
2022/01/19 07:54:25;;;;;;;92.45;32.28;;;;;;;7.14;100.00;102479.19;5058162;28;20078;-53
2022/01/19 07:57:10;;;;;;;86.80;31.85;;;;;;;7.34;100.00;102466.84;5075917;28;20059;-54
2022/01/19 08:00:00;;;;;;;81.60;30.42;;;;;;;7.39;100.00;102469.94;5075765;28;20396;-54
2022/01/19 08:02:41;;;;;;;77.38;29.73;;;;;;;7.41;100.00;102467.16;5075286;28;20086;-55
2022/01/19 08:05:30;;;;;;;85.97;30.83;;;;;;;7.41;100.00;102459.19;5023934;28;20048;-55
2022/01/19 08:07:57;;;;;;;75.88;30.02;;;;;;;7.37;100.00;102458.59;5058114;28;20048;-54
2022/01/19 08:10:23;;;;;;;67.38;27.10;;;;;;;7.31;100.00;102461.78;5075588;28;20131;-55
2022/01/19 08:12:52;;;;;;;84.45;31.58;;;;;;;7.23;100.00;102459.78;5056743;28;20472;-54
2022/01/19 08:15:18;;;;;;;76.07;29.40;;;;;;;7.10;100.00;102452.03;5057502;28;20055;-55
2022/01/19 08:17:44;;;;;;;71.90;27.40;;;;;;;7.20;100.00;102457.41;5057761;28;20481;-55
2022/01/19 08:20:11;;;;;;;72.65;24.58;;;;;;;7.30;100.00;102460.09;5057186;28;20137;-50
2022/01/19 08:22:36;;;;;;;78.22;28.73;;;;;;;7.55;100.00;102460.63;5057529;28;20036;-54
2022/01/19 08:25:24;;;;;;;73.60;27.53;;;;;;;7.41;100.00;102456.50;5044202;28;20133;-52
2022/01/19 08:27:50;;;;;;;72.15;29.23;;;;;;;7.21;100.00;102443.13;5075021;28;20712;-50
2022/01/19 08:30:21;;;;;;;70.15;27.90;;;;;;;7.40;100.00;102447.66;5041754;28;20054;-53
2022/01/19 08:32:46;;;;;;;72.83;28.60;;;;;;;7.42;100.00;102431.56;5058006;28;20139;-52
2022/01/19 08:35:18;;;;;;;69.47;27.98;;;;;;;7.44;100.00;102434.94;5056960;28;20286;-50
2022/01/19 08:38:14;;;;;;;70.85;27.08;;;;;;;7.53;100.00;102431.44;4985874;28;20075;-53
2022/01/19 08:40:46;;;;;;;70.45;27.10;;;;;;;7.71;100.00;102433.47;5057369;28;20044;-51
2022/01/19 08:43:24;;;;;;;68.35;26.33;;;;;;;7.42;100.00;102424.41;5041896;28;20041;-51
2022/01/19 08:45:51;;;;;;;65.15;24.70;;;;;;;7.37;100.00;102428.44;5057003;28;20040;-54
2022/01/19 08:48:20;;;;;;;62.75;25.33;;;;;;;7.47;100.00;102418.69;5057724;28;20045;-50
2022/01/19 08:50:49;;;;;;;74.45;27.83;;;;;;;7.79;100.00;102417.63;5056705;28;20040;-50
2022/01/19 08:53:30;;;;;;;59.53;24.92;;;;;;;7.26;100.00;102411.63;5057049;28;20076;-52
2022/01/19 08:56:10;;;;;;;59.47;24.95;;;;;;;7.44;100.00;102418.97;5057117;28;20100;-52
2022/01/19 08:58:35;;;;;;;62.90;26.37;;;;;;;7.81;100.00;102421.00;5075119;28;20044;-52
2022/01/19 09:01:01;;;;;;;63.70;28.63;;;;;;;7.54;100.00;102413.69;5073871;28;20473;-55
2022/01/19 09:03:28;;;;;;;56.20;26.97;;;;;;;7.75;100.00;102416.22;5074343;28;20288;-52
2022/01/19 09:05:54;;;;;;;55.00;23.23;;;;;;;7.75;100.00;102389.59;5074139;28;20044;-52
2022/01/19 09:08:19;;;;;;;64.82;25.55;;;;;;;7.90;100.00;102398.00;5074436;28;20519;-56
2022/01/19 09:10:47;;;;;;;57.83;25.33;;;;;;;7.77;100.00;102392.97;5074460;28;20115;-54
2022/01/19 09:13:13;;;;;;;60.28;24.52;;;;;;;7.54;100.00;102397.69;5056533;28;20082;-55
2022/01/19 09:15:38;;;;;;;57.47;23.70;;;;;;;7.85;100.00;102387.78;5074996;28;20129;-52
2022/01/19 09:18:04;;;;;;;60.97;25.07;;;;;;;7.50;100.00;102389.13;5056190;28;20121;-52
2022/01/19 09:20:29;;;;;;;51.43;22.43;;;;;;;7.53;100.00;102383.53;5074225;28;20047;-54
2022/01/19 09:22:55;;;;;;;56.50;22.88;;;;;;;7.79;100.00;102380.34;5074129;28;20362;-55
2022/01/19 09:25:21;;;;;;;55.03;25.80;;;;;;;7.58;100.00;102373.31;5074310;28;20043;-51
2022/01/19 09:27:46;;;;;;;48.55;24.23;;;;;;;7.52;100.00;102378.38;5073984;28;20383;-53
2022/01/19 09:30:15;;;;;;;49.80;23.17;;;;;;;7.58;100.00;102372.47;5074592;28;20064;-52
2022/01/19 09:32:49;;;;;;;60.25;24.00;;;;;;;7.59;100.00;102355.53;5073544;28;20095;-55
2022/01/19 09:35:23;;;;;;;55.22;24.42;;;;;;;7.55;100.00;102362.94;5074160;28;20048;-55
2022/01/19 09:37:48;;;;;;;54.58;24.98;;;;;;;7.79;100.00;102358.22;5056838;28;20049;-55
2022/01/19 09:40:14;;;;;;;61.05;24.00;;;;;;;7.75;100.00;102357.63;5056543;28;20094;-53
2022/01/19 09:42:39;;;;;;;51.63;23.20;;;;;;;7.89;100.00;102349.25;5073593;28;20473;-53
2022/01/19 09:45:05;;;;;;;57.53;23.97;;;;;;;7.88;100.00;102352.88;5073548;28;20476;-53
2022/01/19 09:47:31;;;;;;;58.97;24.07;;;;;;;7.85;100.00;102339.84;5055567;28;20342;-52
2022/01/19 09:49:56;;;;;;;54.17;24.45;;;;;;;7.74;100.00;102342.63;5073498;28;20300;-55
2022/01/19 09:52:22;;;;;;;53.27;24.00;;;;;;;7.82;100.00;102341.94;5055711;28;20500;-52
2022/01/19 09:54:47;;;;;;;51.23;23.60;;;;;;;7.85;100.00;102336.34;5073086;28;20055;-54
2022/01/19 09:57:13;;;;;;;44.93;22.17;;;;;;;7.77;100.00;102322.88;5073172;28;20273;-53
2022/01/19 09:59:38;;;;;;;51.17;23.03;;;;;;;7.82;100.00;102331.28;5055773;28;20028;-54
2022/01/19 10:02:05;;;;;;;49.23;22.73;;;;;;;8.02;100.00;102342.78;5073737;28;20067;-53
2022/01/19 10:04:37;;;;;;;52.05;23.67;;;;;;;8.25;100.00;102327.31;5055477;28;20043;-54
2022/01/19 10:07:19;;;;;;;46.53;22.88;;;;;;;8.07;100.00;102329.84;5073979;28;20085;-53
2022/01/19 10:09:59;;;;;;;51.58;24.15;;;;;;;8.36;100.00;102326.31;5073551;28;20040;-52
2022/01/19 10:18:25;;;;;;;49.30;22.50;;;;;;;8.20;100.00;102308.25;5073658;28;20033;-55
2022/01/19 10:21:07;;;;;;;54.72;23.40;;;;;;;8.16;100.00;102318.34;5055327;28;20090;-51
2022/01/19 10:23:36;;;;;;;58.65;25.50;;;;;;;8.26;100.00;102314.81;5073326;28;20157;-55
2022/01/19 10:26:03;;;;;;;47.15;23.27;;;;;;;8.58;100.00;102317.16;5072686;28;20528;-53
2022/01/19 10:28:28;;;;;;;48.38;23.90;;;;;;;8.26;100.00;102297.03;5072968;28;20045;-51
2022/01/19 10:30:54;;;;;;;47.83;22.70;;;;;;;8.53;100.00;102313.22;5073076;28;20040;-50
2022/01/19 10:33:19;;;;;;;51.60;22.87;;;;;;;8.56;100.00;102313.78;5038529;28;20040;-52
2022/01/19 10:35:47;;;;;;;;;;;;;;;8.24;100.00;102314.13;5073372;28;20546;-54
2022/01/19 10:38:23;;;;;;;50.40;21.40;;;;;;;8.41;100.00;102316.06;5077101;28;19952;-54
2022/01/19 10:40:54;;;;;;;50.80;22.63;;;;;;;8.30;100.00;102297.56;5077441;28;20036;-54
2022/01/19 10:43:37;;;;;;;51.17;24.55;;;;;;;8.38;100.00;102294.16;5077379;28;20043;-51
2022/01/19 10:46:21;;;;;;;48.80;21.80;;;;;;;8.43;100.00;102291.94;5059431;28;20067;-53
2022/01/19 10:48:46;;;;;;;54.83;24.92;;;;;;;8.25;100.00;102289.16;5077309;28;20036;-55
2022/01/19 10:51:16;;;;;;;51.07;22.13;;;;;;;8.45;100.00;102290.78;5076925;28;20059;-52
2022/01/19 10:54:04;;;;;;;52.05;22.65;;;;;;;8.51;100.00;102280.53;5083708;28;20040;-51
2022/01/19 10:56:30;;;;;;;55.53;25.98;;;;;;;8.17;100.00;102277.41;5082015;28;20514;-55
2022/01/19 10:59:05;;;;;;;54.58;24.73;;;;;;;8.14;100.00;102274.19;5077006;28;20040;-52
2022/01/19 11:01:38;;;;;;;47.53;23.85;;;;;;;8.33;100.00;102266.13;5076966;28;20461;-55
2022/01/19 11:04:22;;;;;;;48.22;21.88;;;;;;;8.61;100.00;102257.38;5076684;28;20042;-53
2022/01/19 11:06:49;;;;;;;54.05;24.20;;;;;;;8.91;100.00;102255.38;5076913;28;20044;-55
2022/01/19 11:09:15;;;;;;;57.15;25.40;;;;;;;8.13;100.00;102244.03;5076322;28;20115;-51
2022/01/19 11:11:44;;;;;;;53.08;23.75;;;;;;;8.27;100.00;102220.56;5076391;28;20140;-53
2022/01/19 11:14:13;;;;;;;50.35;24.17;;;;;;;8.32;100.00;102235.13;5076505;28;20040;-51
2022/01/19 11:16:40;;;;;;;50.40;23.75;;;;;;;8.38;100.00;102231.03;5076379;28;20067;-55
2022/01/19 11:19:06;;;;;;;53.55;25.75;;;;;;;8.22;100.00;102223.69;5075957;28;20043;-52
2022/01/19 11:21:56;;;;;;;54.88;23.90;;;;;;;8.45;100.00;102217.97;5058161;28;20044;-52
2022/01/19 11:24:34;;;;;;;54.72;24.13;;;;;;;8.46;100.00;102215.13;5065208;28;20052;-54
2022/01/19 11:27:00;;;;;;;55.70;24.98;;;;;;;8.63;100.00;102196.72;5076899;28;20131;-51
2022/01/19 11:29:26;;;;;;;56.35;24.40;;;;;;;8.60;100.00;102202.34;5076393;28;20071;-53
2022/01/19 11:31:55;;;;;;;54.83;25.45;;;;;;;8.88;100.00;102208.50;5075931;28;20059;-53
2022/01/19 11:34:47;;;;;;;61.60;27.15;;;;;;;8.63;100.00;102202.03;5075822;28;20040;-54
2022/01/19 11:37:15;;;;;;;57.70;25.00;;;;;;;8.54;100.00;102194.94;5075816;28;20056;-51
2022/01/19 11:40:06;;;;;;;59.47;25.20;;;;;;;8.70;100.00;102188.97;5075986;28;20040;-53
2022/01/19 11:42:31;;;;;;;52.97;23.23;;;;;;;8.70;100.00;102191.63;5058184;28;20104;-55
2022/01/19 11:44:57;;;;;;;58.90;24.70;;;;;;;8.75;100.00;102184.84;5075261;28;20491;-51
2022/01/19 11:47:25;;;;;;;65.57;27.02;;;;;;;9.07;100.00;102181.81;5074971;28;20323;-51
2022/01/19 11:49:51;;;;;;;58.60;25.67;;;;;;;9.17;100.00;102178.09;5075716;28;20090;-53
2022/01/19 11:52:21;;;;;;;54.20;26.87;;;;;;;8.74;100.00;102163.66;5058993;28;20052;-51
2022/01/19 11:54:48;;;;;;;54.70;26.30;;;;;;;9.01;100.00;102157.44;5079041;28;20131;-54
2022/01/19 11:57:27;;;;;;;64.72;28.85;;;;;;;9.31;100.00;102143.81;5077052;28;20043;-54
2022/01/19 12:00:09;;;;;;;52.17;24.60;;;;;;;9.36;100.00;102143.38;5074944;28;20048;-51
2022/01/19 12:02:42;;;;;;;62.42;26.45;;;;;;;9.26;100.00;102133.63;5075808;28;20123;-51
2022/01/19 12:05:11;;;;;;;52.83;25.33;;;;;;;9.35;100.00;102136.34;5076312;28;20037;-53
2022/01/19 12:07:40;;;;;;;57.42;25.02;;;;;;;9.81;100.00;102120.97;5076258;28;20075;-53
2022/01/19 12:10:16;;;;;;;57.58;25.58;;;;;;;9.22;100.00;102123.41;5058301;28;20039;-54
2022/01/19 12:13:07;;;;;;;53.20;25.83;;;;;;;9.67;100.00;102108.16;5075806;28;20430;-53
2022/01/19 12:15:57;;;;;;;55.22;24.35;;;;;;;9.32;100.00;102126.81;5075656;28;20044;-53
2022/01/19 12:18:41;;;;;;;52.63;23.42;;;;;;;9.68;100.00;102115.19;5057863;28;20036;-54
2022/01/19 12:21:10;;;;;;;52.75;25.23;;;;;;;9.45;100.00;102111.22;5057911;28;20055;-55
2022/01/19 12:23:37;;;;;;;58.35;25.23;;;;;;;9.38;100.00;102098.66;5075588;28;20414;-55
2022/01/19 12:26:04;;;;;;;53.92;26.85;;;;;;;9.69;100.00;102104.38;5074988;28;20086;-55
2022/01/19 12:28:41;;;;;;;58.67;24.88;;;;;;;9.43;100.00;102099.88;5076504;28;20048;-55
2022/01/19 12:31:22;;;;;;;54.42;24.85;;;;;;;9.68;100.00;102093.81;5077372;28;20037;-55
2022/01/19 12:34:03;;;;;;;56.92;24.73;;;;;;;9.51;100.00;102093.75;5077435;28;20098;-55
2022/01/19 12:36:42;;;;;;;59.47;23.25;;;;;;;9.31;100.00;102093.94;5057770;28;20036;-52
2022/01/19 12:39:26;;;;;;;55.25;24.45;;;;;;;9.69;100.00;102088.34;5075770;28;20095;-52
2022/01/19 12:42:29;;;;;;;54.90;24.70;;;;;;;8.94;100.00;102070.97;5075516;28;20036;-55
2022/01/19 12:44:57;;;;;;;67.38;25.67;;;;;;;9.30;100.00;102070.91;5065432;28;20118;-54
2022/01/19 12:47:28;;;;;;;59.03;25.67;;;;;;;9.43;100.00;102059.81;5057377;28;20063;-55
2022/01/19 12:50:17;;;;;;;56.65;25.17;;;;;;;9.23;100.00;102067.22;5075959;28;20064;-55
2022/01/19 12:52:46;;;;;;;58.72;26.13;;;;;;;9.22;100.00;102060.16;5075809;28;20356;-55